KGEY

South Big Horn County Airport

Greybull, Wyoming, USA
METAR KGEY 211353Z AUTO 14003KT 10SM CLR 13/09 A2993 RMK AO2 SLP109 T01330089 TSNO
Observed Flight Rules
May-21 @ 13:53 UTC (an hour ago) Visual Flight Rules
Wind Visibility Clouds
140° at 3 knots 10 miles
  • Clear skies
Temperatures Readings
Current 13°C / 55°F
Dewpoint 9°C / 48°F
Humidity 77%
Altimeter 29.93" Hg
Pressure 1010.9 hPa
Elevation 1191
METAR KGEY 211353Z AUTO 14003KT 10SM CLR 13/09 A2993 RMK AO2 SLP109 T01330089 TSNO
Observed Flight Rules
May-21 @ 13:53 UTC
(an hour ago)
VFR
Wind Visibility
140° at 3 knots 10 miles
Clouds
  • Clear skies
Temperature Dewpoint
13°C / 55°F 9°C / 48°F
Humidity Altimeter Pressure
77% 29.93" Hg 1010.9 hPa